sensor_id;sensor_type;location;lat;lon;timestamp;pressure;altitude;pressure_sealevel;temperature;humidity
70954;BME280;58618;47.490;8.736;2022-10-31T00:00:49;97113.84;;;7.48;100.00
70954;BME280;58618;47.490;8.736;2022-10-31T00:03:36;97119.00;;;7.31;100.00
70954;BME280;58618;47.490;8.736;2022-10-31T00:06:24;97111.22;;;7.26;100.00
70954;BME280;58618;47.490;8.736;2022-10-31T00:09:11;97113.69;;;7.38;100.00
70954;BME280;58618;47.490;8.736;2022-10-31T00:11:59;97111.06;;;7.33;100.00
70954;BME280;58618;47.490;8.736;2022-10-31T00:14:46;97101.09;;;7.36;100.00
70954;BME280;58618;47.490;8.736;2022-10-31T00:17:36;97110.72;;;7.46;100.00
70954;BME280;58618;47.490;8.736;2022-10-31T00:20:23;97102.50;;;7.44;100.00
70954;BME280;58618;47.490;8.736;2022-10-31T00:23:10;97104.06;;;7.45;100.00
70954;BME280;58618;47.490;8.736;2022-10-31T00:26:00;97109.56;;;7.37;100.00
70954;BME280;58618;47.490;8.736;2022-10-31T00:28:47;97102.38;;;7.34;100.00
70954;BME280;58618;47.490;8.736;2022-10-31T00:31:35;97098.84;;;7.40;100.00
70954;BME280;58618;47.490;8.736;2022-10-31T00:34:24;97103.16;;;7.34;100.00
70954;BME280;58618;47.490;8.736;2022-10-31T00:37:11;97094.13;;;7.32;100.00
70954;BME280;58618;47.490;8.736;2022-10-31T00:39:59;97100.19;;;7.26;100.00
70954;BME280;58618;47.490;8.736;2022-10-31T00:42:46;97105.81;;;7.22;100.00
70954;BME280;58618;47.490;8.736;2022-10-31T00:45:34;97101.13;;;7.19;100.00
70954;BME280;58618;47.490;8.736;2022-10-31T00:48:21;97103.63;;;7.14;100.00
70954;BME280;58618;47.490;8.736;2022-10-31T00:51:10;97103.63;;;7.14;100.00
70954;BME280;58618;47.490;8.736;2022-10-31T00:53:57;97102.69;;;7.20;100.00
70954;BME280;58618;47.490;8.736;2022-10-31T00:56:45;97107.28;;;7.18;100.00
70954;BME280;58618;47.490;8.736;2022-10-31T00:59:32;97106.13;;;7.09;100.00
70954;BME280;58618;47.490;8.736;2022-10-31T01:02:20;97104.72;;;7.18;100.00
70954;BME280;58618;47.490;8.736;2022-10-31T01:05:07;97103.88;;;6.96;100.00
70954;BME280;58618;47.490;8.736;2022-10-31T01:07:57;97109.00;;;6.96;100.00
70954;BME280;58618;47.490;8.736;2022-10-31T01:10:45;97108.59;;;7.04;100.00
70954;BME280;58618;47.490;8.736;2022-10-31T01:13:32;97103.03;;;7.07;100.00
70954;BME280;58618;47.490;8.736;2022-10-31T01:16:21;97104.41;;;6.98;100.00
70954;BME280;58618;47.490;8.736;2022-10-31T01:19:09;97108.00;;;6.97;100.00
70954;BME280;58618;47.490;8.736;2022-10-31T01:21:57;97106.13;;;7.09;100.00
70954;BME280;58618;47.490;8.736;2022-10-31T01:24:45;97102.41;;;7.00;100.00
70954;BME280;58618;47.490;8.736;2022-10-31T01:27:33;97104.88;;;6.95;100.00
70954;BME280;58618;47.490;8.736;2022-10-31T01:30:20;97101.00;;;6.76;100.00
70954;BME280;58618;47.490;8.736;2022-10-31T01:33:08;97100.38;;;6.69;100.00
70954;BME280;58618;47.490;8.736;2022-10-31T01:35:55;97099.16;;;6.71;100.00
70954;BME280;58618;47.490;8.736;2022-10-31T01:38:43;97092.28;;;6.77;100.00
70954;BME280;58618;47.490;8.736;2022-10-31T01:41:34;97096.19;;;6.79;100.00
70954;BME280;58618;47.490;8.736;2022-10-31T01:44:51;97082.91;;;6.66;100.00
70954;BME280;58618;47.490;8.736;2022-10-31T01:47:42;97088.50;;;6.63;100.00
70954;BME280;58618;47.490;8.736;2022-10-31T01:50:34;97086.56;;;6.70;100.00
70954;BME280;58618;47.490;8.736;2022-10-31T01:53:24;97084.84;;;6.75;100.00
70954;BME280;58618;47.490;8.736;2022-10-31T01:56:12;97089.66;;;6.72;100.00
70954;BME280;58618;47.490;8.736;2022-10-31T01:59:05;97076.75;;;6.67;100.00
70954;BME280;58618;47.490;8.736;2022-10-31T02:01:53;97081.34;;;6.65;100.00
70954;BME280;58618;47.490;8.736;2022-10-31T02:04:41;97090.44;;;6.72;100.00
70954;BME280;58618;47.490;8.736;2022-10-31T02:07:34;97085.63;;;6.76;100.00
70954;BME280;58618;47.490;8.736;2022-10-31T02:10:25;97085.16;;;6.79;100.00
70954;BME280;58618;47.490;8.736;2022-10-31T02:13:14;97080.50;;;6.76;100.00
70954;BME280;58618;47.490;8.736;2022-10-31T02:16:04;97083.66;;;6.66;100.00
70954;BME280;58618;47.490;8.736;2022-10-31T02:18:51;97082.19;;;6.54;100.00
70954;BME280;58618;47.490;8.736;2022-10-31T02:21:44;97048.78;;;6.32;100.00
70954;BME280;58618;47.490;8.736;2022-10-31T02:24:45;97080.72;;;6.58;100.00
70954;BME280;58618;47.490;8.736;2022-10-31T02:27:51;97066.81;;;6.54;100.00
70954;BME280;58618;47.490;8.736;2022-10-31T02:30:54;97074.88;;;6.46;100.00
70954;BME280;58618;47.490;8.736;2022-10-31T02:33:45;97069.31;;;6.49;100.00
70954;BME280;58618;47.490;8.736;2022-10-31T02:36:40;97071.31;;;6.47;100.00
70954;BME280;58618;47.490;8.736;2022-10-31T02:39:34;97068.66;;;6.42;100.00
70954;BME280;58618;47.490;8.736;2022-10-31T02:42:30;97069.31;;;6.49;100.00
70954;BME280;58618;47.490;8.736;2022-10-31T02:45:23;97068.22;;;6.45;100.00
70954;BME280;58618;47.490;8.736;2022-10-31T02:48:18;97074.44;;;6.49;100.00
70954;BME280;58618;47.490;8.736;2022-10-31T02:51:08;97072.22;;;6.41;100.00
70954;BME280;58618;47.490;8.736;2022-10-31T02:53:56;97072.72;;;6.38;100.00
70954;BME280;58618;47.490;8.736;2022-10-31T02:56:43;97071.78;;;6.44;100.00
70954;BME280;58618;47.490;8.736;2022-10-31T02:59:32;97070.69;;;6.40;100.00
70954;BME280;58618;47.490;8.736;2022-10-31T03:02:37;97065.56;;;6.40;100.00
70954;BME280;58618;47.490;8.736;2022-10-31T03:05:51;97070.50;;;6.29;100.00
70954;BME280;58618;47.490;8.736;2022-10-31T03:08:48;97066.16;;;6.30;100.00
70954;BME280;58618;47.490;8.736;2022-10-31T03:11:43;97066.03;;;6.36;100.00
70954;BME280;58618;47.490;8.736;2022-10-31T03:14:40;97058.91;;;6.39;100.00
70954;BME280;58618;47.490;8.736;2022-10-31T03:17:33;97066.50;;;6.33;100.00
70954;BME280;58618;47.490;8.736;2022-10-31T03:20:26;97053.59;;;6.28;100.00
70954;BME280;58618;47.490;8.736;2022-10-31T03:23:19;97056.69;;;6.30;100.00
70954;BME280;58618;47.490;8.736;2022-10-31T03:26:08;97055.31;;;6.23;100.00
70954;BME280;58618;47.490;8.736;2022-10-31T03:29:00;97057.09;;;6.22;100.00
70954;BME280;58618;47.490;8.736;2022-10-31T03:31:51;97046.19;;;6.15;100.00
70954;BME280;58618;47.490;8.736;2022-10-31T03:34:42;97055.75;;;6.20;100.00
70954;BME280;58618;47.490;8.736;2022-10-31T03:37:32;97053.88;;;6.15;100.00
70954;BME280;58618;47.490;8.736;2022-10-31T03:40:24;97063.69;;;6.18;100.00
70954;BME280;58618;47.490;8.736;2022-10-31T03:43:18;97034.22;;;6.04;100.00
70954;BME280;58618;47.490;8.736;2022-10-31T03:46:08;97050.63;;;6.20;100.00
70954;BME280;58618;47.490;8.736;2022-10-31T03:48:57;97047.28;;;6.19;100.00
70954;BME280;58618;47.490;8.736;2022-10-31T03:51:48;97052.66;;;6.18;100.00
70954;BME280;58618;47.490;8.736;2022-10-31T03:54:41;97044.88;;;6.13;100.00
70954;BME280;58618;47.490;8.736;2022-10-31T03:57:35;97046.66;;;6.12;100.00
70954;BME280;58618;47.490;8.736;2022-10-31T04:00:24;97029.47;;;5.96;100.00
70954;BME280;58618;47.490;8.736;2022-10-31T04:03:15;97021.72;;;5.91;100.00
70954;BME280;58618;47.490;8.736;2022-10-31T04:06:06;96984.97;;;5.57;100.00
70954;BME280;58618;47.490;8.736;2022-10-31T04:08:57;97021.81;;;5.96;100.00
70954;BME280;58618;47.490;8.736;2022-10-31T04:11:51;97040.22;;;6.10;100.00
70954;BME280;58618;47.490;8.736;2022-10-31T04:14:43;97036.00;;;6.04;100.00
70954;BME280;58618;47.490;8.736;2022-10-31T04:17:36;97039.72;;;5.96;100.00
70954;BME280;58618;47.490;8.736;2022-10-31T04:20:32;97044.75;;;5.79;100.00
70954;BME280;58618;47.490;8.736;2022-10-31T04:23:24;97046.53;;;5.90;100.00
70954;BME280;58618;47.490;8.736;2022-10-31T04:26:12;97038.28;;;5.88;100.00
70954;BME280;58618;47.490;8.736;2022-10-31T04:28:59;97047.31;;;5.91;100.00
70954;BME280;58618;47.490;8.736;2022-10-31T04:31:49;97046.31;;;5.92;100.00
70954;BME280;58618;47.490;8.736;2022-10-31T04:34:37;97037.19;;;5.84;100.00
70954;BME280;58618;47.490;8.736;2022-10-31T04:37:25;97033.63;;;5.85;100.00
70954;BME280;58618;47.490;8.736;2022-10-31T04:40:12;97042.50;;;5.83;100.00
70954;BME280;58618;47.490;8.736;2022-10-31T04:42:59;97043.75;;;5.80;100.00
70954;BME280;58618;47.490;8.736;2022-10-31T04:45:47;97034.97;;;5.76;100.00
70954;BME280;58618;47.490;8.736;2022-10-31T04:48:36;97032.19;;;5.78;100.00
70954;BME280;58618;47.490;8.736;2022-10-31T04:51:23;97042.28;;;5.84;100.00
70954;BME280;58618;47.490;8.736;2022-10-31T04:54:10;97041.97;;;5.81;100.00
70954;BME280;58618;47.490;8.736;2022-10-31T04:56:58;97032.19;;;5.78;100.00
70954;BME280;58618;47.490;8.736;2022-10-31T04:59:45;97033.66;;;5.74;100.00
70954;BME280;58618;47.490;8.736;2022-10-31T05:02:33;97033.09;;;5.72;100.00
70954;BME280;58618;47.490;8.736;2022-10-31T05:05:24;97025.88;;;5.69;100.00
70954;BME280;58618;47.490;8.736;2022-10-31T05:08:12;97013.09;;;5.69;100.00
70954;BME280;58618;47.490;8.736;2022-10-31T05:11:00;97011.31;;;5.69;100.00
70954;BME280;58618;47.490;8.736;2022-10-31T05:13:47;97025.50;;;5.77;100.00
70954;BME280;58618;47.490;8.736;2022-10-31T05:16:35;97020.38;;;5.77;100.00
70954;BME280;58618;47.490;8.736;2022-10-31T05:19:22;97019.59;;;5.76;100.00
70954;BME280;58618;47.490;8.736;2022-10-31T05:22:11;97019.94;;;5.80;100.00
70954;BME280;58618;47.490;8.736;2022-10-31T05:24:58;97013.56;;;5.66;100.00
70954;BME280;58618;47.490;8.736;2022-10-31T05:27:49;97008.88;;;5.63;100.00
70954;BME280;58618;47.490;8.736;2022-10-31T05:30:37;97002.66;;;5.59;100.00
70954;BME280;58618;47.490;8.736;2022-10-31T05:33:24;97015.44;;;5.70;100.00
70954;BME280;58618;47.490;8.736;2022-10-31T05:36:11;97006.72;;;5.71;100.00
70954;BME280;58618;47.490;8.736;2022-10-31T05:39:00;97009.44;;;5.65;100.00
70954;BME280;58618;47.490;8.736;2022-10-31T05:41:48;97001.28;;;5.68;100.00
70954;BME280;58618;47.490;8.736;2022-10-31T05:44:35;97001.28;;;5.68;100.00
70954;BME280;58618;47.490;8.736;2022-10-31T05:47:22;97006.41;;;5.68;100.00
70954;BME280;58618;47.490;8.736;2022-10-31T05:52:42;96971.13;;;5.41;100.00
70954;BME280;58618;47.490;8.736;2022-10-31T05:55:31;97001.59;;;5.71;100.00
70954;BME280;58618;47.490;8.736;2022-10-31T05:58:19;96997.00;;;5.57;100.00
70954;BME280;58618;47.490;8.736;2022-10-31T06:01:07;97002.53;;;5.65;100.00
70954;BME280;58618;47.490;8.736;2022-10-31T06:03:54;96990.63;;;5.71;100.00
70954;BME280;58618;47.490;8.736;2022-10-31T06:06:42;96951.84;;;5.50;100.00
70954;BME280;58618;47.490;8.736;2022-10-31T06:09:29;96992.56;;;5.80;100.00
70954;BME280;58618;47.490;8.736;2022-10-31T06:12:18;96987.88;;;5.89;100.00
70954;BME280;58618;47.490;8.736;2022-10-31T06:15:07;96992.44;;;5.87;100.00
70954;BME280;58618;47.490;8.736;2022-10-31T06:17:58;96998.28;;;5.99;100.00
70954;BME280;58618;47.490;8.736;2022-10-31T06:20:46;96943.16;;;5.80;100.00
70954;BME280;58618;47.490;8.736;2022-10-31T06:23:34;96996.63;;;6.21;100.00
70954;BME280;58618;47.490;8.736;2022-10-31T06:26:22;96944.59;;;6.04;100.00
70954;BME280;58618;47.490;8.736;2022-10-31T06:29:10;96984.53;;;6.50;100.00
70954;BME280;58618;47.490;8.736;2022-10-31T06:31:58;97002.19;;;6.85;100.00
70954;BME280;58618;47.490;8.736;2022-10-31T06:34:45;97005.56;;;7.07;100.00
70954;BME280;58618;47.490;8.736;2022-10-31T06:37:34;96995.53;;;7.28;100.00
70954;BME280;58618;47.490;8.736;2022-10-31T06:40:22;96995.59;;;7.33;100.00
70954;BME280;58618;47.490;8.736;2022-10-31T06:43:09;96986.53;;;7.25;100.00
70954;BME280;58618;47.490;8.736;2022-10-31T06:46:02;97003.06;;;7.12;100.00
70954;BME280;58618;47.490;8.736;2022-10-31T06:48:49;97008.13;;;7.07;100.00
70954;BME280;58618;47.490;8.736;2022-10-31T06:51:37;96999.00;;;7.16;100.00
70954;BME280;58618;47.490;8.736;2022-10-31T06:54:24;96994.88;;;7.15;100.00
70954;BME280;58618;47.490;8.736;2022-10-31T06:57:12;97005.31;;;7.31;100.00
70954;BME280;58618;47.490;8.736;2022-10-31T06:59:59;97007.41;;;7.55;100.00
70954;BME280;58618;47.490;8.736;2022-10-31T07:02:54;96994.59;;;7.82;100.00
70954;BME280;58618;47.490;8.736;2022-10-31T07:05:43;96999.19;;;8.07;100.00
70954;BME280;58618;47.490;8.736;2022-10-31T07:08:31;97000.50;;;8.10;100.00
70954;BME280;58618;47.490;8.736;2022-10-31T07:11:18;97005.72;;;8.20;100.00
70954;BME280;58618;47.490;8.736;2022-10-31T07:14:06;97009.94;;;8.31;100.00
70954;BME280;58618;47.490;8.736;2022-10-31T07:16:53;96997.63;;;8.33;100.00
70954;BME280;58618;47.490;8.736;2022-10-31T07:19:42;97008.34;;;8.57;100.00
70954;BME280;58618;47.490;8.736;2022-10-31T07:22:33;97014.41;;;8.72;100.00
70954;BME280;58618;47.490;8.736;2022-10-31T07:25:20;97016.00;;;8.88;100.00
70954;BME280;58618;47.490;8.736;2022-10-31T07:28:08;97021.25;;;8.99;100.00
70954;BME280;58618;47.490;8.736;2022-10-31T07:30:57;97008.88;;;9.01;100.00
70954;BME280;58618;47.490;8.736;2022-10-31T07:33:44;97031.66;;;9.19;100.00
70954;BME280;58618;47.490;8.736;2022-10-31T07:36:33;97028.59;;;9.32;100.00
70954;BME280;58618;47.490;8.736;2022-10-31T07:39:21;97022.47;;;9.43;100.00
70954;BME280;58618;47.490;8.736;2022-10-31T07:42:08;97031.81;;;9.59;100.00
70954;BME280;58618;47.490;8.736;2022-10-31T07:44:56;97028.25;;;9.70;100.00
70954;BME280;58618;47.490;8.736;2022-10-31T07:47:44;97027.75;;;9.84;100.00
70954;BME280;58618;47.490;8.736;2022-10-31T07:50:32;97015.94;;;9.93;100.00
70954;BME280;58618;47.490;8.736;2022-10-31T07:53:22;96998.94;;;9.92;100.00
70954;BME280;58618;47.490;8.736;2022-10-31T07:56:09;97013.38;;;10.08;100.00
70954;BME280;58618;47.490;8.736;2022-10-31T07:58:57;97001.75;;;10.00;100.00
70954;BME280;58618;47.490;8.736;2022-10-31T08:01:44;97018.00;;;9.96;100.00
70954;BME280;58618;47.490;8.736;2022-10-31T08:04:32;97015.94;;;9.98;100.00
70954;BME280;58618;47.490;8.736;2022-10-31T08:07:19;97019.53;;;9.92;100.00
70954;BME280;58618;47.490;8.736;2022-10-31T08:10:08;97015.94;;;9.93;100.00
70954;BME280;58618;47.490;8.736;2022-10-31T08:12:57;97014.38;;;9.92;100.00
70954;BME280;58618;47.490;8.736;2022-10-31T08:15:45;97023.69;;;10.08;100.00
70954;BME280;58618;47.490;8.736;2022-10-31T08:18:36;97019.09;;;10.25;100.00
70954;BME280;58618;47.490;8.736;2022-10-31T08:21:24;97016.25;;;10.37;100.00
70954;BME280;58618;47.490;8.736;2022-10-31T08:24:11;97018.34;;;10.45;100.00
70954;BME280;58618;47.490;8.736;2022-10-31T08:27:00;97012.41;;;10.54;100.00
70954;BME280;58618;47.490;8.736;2022-10-31T08:29:47;97017.03;;;10.68;100.00
70954;BME280;58618;47.490;8.736;2022-10-31T08:32:35;97010.06;;;10.48;100.00
70954;BME280;58618;47.490;8.736;2022-10-31T08:35:22;97012.38;;;10.59;100.00
70954;BME280;58618;47.490;8.736;2022-10-31T08:38:11;97005.66;;;10.84;100.00
70954;BME280;58618;47.490;8.736;2022-10-31T08:40:58;96986.03;;;10.88;100.00
70954;BME280;58618;47.490;8.736;2022-10-31T08:43:47;97009.97;;;11.19;100.00
70954;BME280;58618;47.490;8.736;2022-10-31T08:46:34;97011.50;;;11.25;100.00
70954;BME280;58618;47.490;8.736;2022-10-31T08:49:22;97002.41;;;11.32;100.00
70954;BME280;58618;47.490;8.736;2022-10-31T08:52:09;96972.00;;;11.19;100.00
70954;BME280;58618;47.490;8.736;2022-10-31T08:54:57;96999.75;;;11.48;100.00
70954;BME280;58618;47.490;8.736;2022-10-31T08:57:44;96995.47;;;11.23;100.00
70954;BME280;58618;47.490;8.736;2022-10-31T09:00:33;96986.50;;;11.05;100.00
70954;BME280;58618;47.490;8.736;2022-10-31T09:03:22;96995.44;;;11.33;100.00
70954;BME280;58618;47.490;8.736;2022-10-31T09:06:10;96995.19;;;11.34;100.00
70954;BME280;58618;47.490;8.736;2022-10-31T09:08:57;96988.69;;;11.47;100.00
70954;BME280;58618;47.490;8.736;2022-10-31T09:11:45;96986.03;;;11.62;100.00
70954;BME280;58618;47.490;8.736;2022-10-31T09:14:32;96994.56;;;11.63;100.00
70954;BME280;58618;47.490;8.736;2022-10-31T09:17:21;96993.81;;;12.01;100.00
70954;BME280;58618;47.490;8.736;2022-10-31T09:20:09;97000.88;;;12.30;100.00
70954;BME280;58618;47.490;8.736;2022-10-31T09:22:59;97000.78;;;12.40;100.00
70954;BME280;58618;47.490;8.736;2022-10-31T09:25:48;97009.50;;;12.49;100.00
70954;BME280;58618;47.490;8.736;2022-10-31T09:28:35;96999.16;;;12.49;100.00
70954;BME280;58618;47.490;8.736;2022-10-31T09:31:23;96991.59;;;12.57;99.35
70954;BME280;58618;47.490;8.736;2022-10-31T09:34:12;96979.69;;;12.56;99.67
70954;BME280;58618;47.490;8.736;2022-10-31T09:36:59;96975.09;;;12.48;96.81
70954;BME280;58618;47.490;8.736;2022-10-31T09:39:47;96982.03;;;12.58;97.55
70954;BME280;58618;47.490;8.736;2022-10-31T09:43:00;96986.44;;;12.81;97.87
70954;BME280;58618;47.490;8.736;2022-10-31T09:46:00;96972.91;;;12.89;98.76
70954;BME280;58618;47.490;8.736;2022-10-31T09:49:00;96962.97;;;12.96;99.48
70954;BME280;58618;47.490;8.736;2022-10-31T09:51:59;96962.97;;;12.96;96.46
70954;BME280;58618;47.490;8.736;2022-10-31T09:54:53;96959.78;;;13.04;98.48
70954;BME280;58618;47.490;8.736;2022-10-31T09:57:42;96958.94;;;13.14;97.97
70954;BME280;58618;47.490;8.736;2022-10-31T10:00:31;96952.31;;;13.27;96.88
70954;BME280;58618;47.490;8.736;2022-10-31T10:03:28;96951.09;;;13.43;97.58
70954;BME280;58618;47.490;8.736;2022-10-31T10:06:19;96957.66;;;13.54;97.61
70954;BME280;58618;47.490;8.736;2022-10-31T10:09:10;96952.91;;;13.61;96.98
70954;BME280;58618;47.490;8.736;2022-10-31T10:12:08;96954.91;;;13.64;94.89
70954;BME280;58618;47.490;8.736;2022-10-31T10:15:07;96951.84;;;13.62;93.58
70954;BME280;58618;47.490;8.736;2022-10-31T10:18:12;96938.91;;;13.62;93.27
70954;BME280;58618;47.490;8.736;2022-10-31T10:21:13;96944.34;;;13.79;92.33
70954;BME280;58618;47.490;8.736;2022-10-31T10:27:30;96927.41;;;14.19;94.26
70954;BME280;58618;47.490;8.736;2022-10-31T10:30:21;96917.53;;;14.35;93.10
70954;BME280;58618;47.490;8.736;2022-10-31T10:33:12;96920.75;;;14.46;93.45
70954;BME280;58618;47.490;8.736;2022-10-31T10:36:04;96925.94;;;14.46;95.01
70954;BME280;58618;47.490;8.736;2022-10-31T10:38:55;96930.00;;;14.52;92.08
70954;BME280;58618;47.490;8.736;2022-10-31T10:41:48;96930.56;;;14.49;90.75
70954;BME280;58618;47.490;8.736;2022-10-31T10:44:50;96934.16;;;14.34;89.98
70954;BME280;58618;47.490;8.736;2022-10-31T10:48:00;96924.34;;;14.31;91.73
70954;BME280;58618;47.490;8.736;2022-10-31T10:50:51;96926.44;;;14.29;90.40
70954;BME280;58618;47.490;8.736;2022-10-31T10:53:46;96921.25;;;14.29;92.76
70954;BME280;58618;47.490;8.736;2022-10-31T10:56:58;96921.84;;;14.26;92.96
70954;BME280;58618;47.490;8.736;2022-10-31T10:59:50;96919.72;;;14.28;91.92
70954;BME280;58618;47.490;8.736;2022-10-31T11:02:38;96905.88;;;14.19;91.14
70954;BME280;58618;47.490;8.736;2022-10-31T11:05:33;96919.34;;;14.21;93.47
70954;BME280;58618;47.490;8.736;2022-10-31T11:08:26;96913.38;;;14.20;92.98
70954;BME280;58618;47.490;8.736;2022-10-31T11:11:23;96912.78;;;14.23;91.70
70954;BME280;58618;47.490;8.736;2022-10-31T11:14:15;96892.34;;;14.22;92.33
70954;BME280;58618;47.490;8.736;2022-10-31T11:17:09;96907.88;;;14.41;91.55
70954;BME280;58618;47.490;8.736;2022-10-31T11:20:06;96907.59;;;14.42;92.18
70954;BME280;58618;47.490;8.736;2022-10-31T11:23:02;96903.63;;;14.45;92.95
70954;BME280;58618;47.490;8.736;2022-10-31T11:25:51;96909.59;;;14.45;92.66
70954;BME280;58618;47.490;8.736;2022-10-31T11:28:40;96913.81;;;14.41;92.45
70954;BME280;58618;47.490;8.736;2022-10-31T11:31:29;96902.31;;;14.47;92.75
70954;BME280;58618;47.490;8.736;2022-10-31T11:34:27;96903.34;;;14.14;93.05
70954;BME280;58618;47.490;8.736;2022-10-31T11:37:19;96899.63;;;14.52;94.25
70954;BME280;58618;47.490;8.736;2022-10-31T11:40:16;96898.28;;;14.68;91.54
70954;BME280;58618;47.490;8.736;2022-10-31T11:43:04;96891.53;;;14.67;91.10
70954;BME280;58618;47.490;8.736;2022-10-31T11:45:51;96888.56;;;14.60;90.85
70954;BME280;58618;47.490;8.736;2022-10-31T11:48:46;96876.25;;;14.79;90.11
70954;BME280;58618;47.490;8.736;2022-10-31T11:51:35;96876.41;;;14.97;90.44
70954;BME280;58618;47.490;8.736;2022-10-31T11:54:25;96875.56;;;15.01;88.99
70954;BME280;58618;47.490;8.736;2022-10-31T11:57:24;96890.44;;;15.23;89.61
70954;BME280;58618;47.490;8.736;2022-10-31T12:00:21;96882.91;;;15.35;87.61
70954;BME280;58618;47.490;8.736;2022-10-31T12:03:27;96858.34;;;15.41;87.46
70954;BME280;58618;47.490;8.736;2022-10-31T12:06:22;96840.38;;;15.31;88.28
70954;BME280;58618;47.490;8.736;2022-10-31T12:09:19;96846.16;;;15.64;88.33
70954;BME280;58618;47.490;8.736;2022-10-31T12:12:19;96855.78;;;15.50;86.34
70954;BME280;58618;47.490;8.736;2022-10-31T12:15:23;96845.38;;;15.63;86.21
70954;BME280;58618;47.490;8.736;2022-10-31T12:21:48;96838.38;;;15.50;86.56
70954;BME280;58618;47.490;8.736;2022-10-31T12:25:09;96819.00;;;15.79;85.04
70954;BME280;58618;47.490;8.736;2022-10-31T12:28:11;96799.88;;;15.75;84.54
70954;BME280;58618;47.490;8.736;2022-10-31T12:31:12;96778.81;;;15.85;84.49
70954;BME280;58618;47.490;8.736;2022-10-31T12:34:26;96779.94;;;16.01;85.00
70954;BME280;58618;47.490;8.736;2022-10-31T12:37:28;96770.34;;;16.10;84.72
70954;BME280;58618;47.490;8.736;2022-10-31T12:40:34;96775.84;;;16.09;84.59
70954;BME280;58618;47.490;8.736;2022-10-31T12:43:35;96810.72;;;16.38;85.05
70954;BME280;58618;47.490;8.736;2022-10-31T12:46:37;96804.44;;;16.39;84.73
70954;BME280;58618;47.490;8.736;2022-10-31T12:49:49;96791.88;;;16.41;85.05
70954;BME280;58618;47.490;8.736;2022-10-31T12:52:56;96782.25;;;16.42;84.41
70954;BME280;58618;47.490;8.736;2022-10-31T12:55:55;96780.84;;;16.44;85.88
70954;BME280;58618;47.490;8.736;2022-10-31T12:58:49;96723.22;;;16.20;88.61
70954;BME280;58618;47.490;8.736;2022-10-31T13:01:47;96759.53;;;16.34;88.69
70954;BME280;58618;47.490;8.736;2022-10-31T13:04:42;96756.06;;;16.38;90.71
70954;BME280;58618;47.490;8.736;2022-10-31T13:07:36;96750.50;;;16.31;89.39
70954;BME280;58618;47.490;8.736;2022-10-31T13:10:32;96744.66;;;16.26;89.31
70954;BME280;58618;47.490;8.736;2022-10-31T13:13:26;96690.53;;;15.97;91.04
70954;BME280;58618;47.490;8.736;2022-10-31T13:16:16;96702.69;;;16.10;90.61
70954;BME280;58618;47.490;8.736;2022-10-31T13:19:13;96718.50;;;16.22;91.74
70954;BME280;58618;47.490;8.736;2022-10-31T13:22:06;96714.34;;;16.21;90.06
70954;BME280;58618;47.490;8.736;2022-10-31T13:24:59;96707.53;;;16.03;92.91
70954;BME280;58618;47.490;8.736;2022-10-31T13:27:55;96672.09;;;15.76;92.26
70954;BME280;58618;47.490;8.736;2022-10-31T13:30:44;96679.78;;;15.81;95.08
70954;BME280;58618;47.490;8.736;2022-10-31T13:33:34;96700.66;;;15.98;95.74
70954;BME280;58618;47.490;8.736;2022-10-31T13:36:30;96676.28;;;15.86;95.70
70954;BME280;58618;47.490;8.736;2022-10-31T13:39:27;96683.34;;;15.94;95.54
70954;BME280;58618;47.490;8.736;2022-10-31T13:42:23;96683.63;;;15.84;97.22
70954;BME280;58618;47.490;8.736;2022-10-31T13:45:16;96687.91;;;15.80;95.45
70954;BME280;58618;47.490;8.736;2022-10-31T13:48:19;96693.81;;;15.72;96.30
70954;BME280;58618;47.490;8.736;2022-10-31T13:51:09;96685.84;;;15.68;96.29
70954;BME280;58618;47.490;8.736;2022-10-31T13:53:59;96688.75;;;15.67;98.59
70954;BME280;58618;47.490;8.736;2022-10-31T13:56:49;96682.97;;;15.70;97.55
70954;BME280;58618;47.490;8.736;2022-10-31T13:59:37;96653.91;;;15.45;97.08
70954;BME280;58618;47.490;8.736;2022-10-31T14:02:28;96680.16;;;15.57;98.67
70954;BME280;58618;47.490;8.736;2022-10-31T14:05:22;96658.13;;;15.33;98.82
70954;BME280;58618;47.490;8.736;2022-10-31T14:08:18;96644.41;;;15.10;100.00
70954;BME280;58618;47.490;8.736;2022-10-31T14:11:09;96675.34;;;15.20;100.00
70954;BME280;58618;47.490;8.736;2022-10-31T14:14:11;96677.69;;;15.08;100.00
70954;BME280;58618;47.490;8.736;2022-10-31T14:17:01;96676.28;;;15.02;100.00
70954;BME280;58618;47.490;8.736;2022-10-31T14:20:25;96679.88;;;14.92;100.00
70954;BME280;58618;47.490;8.736;2022-10-31T14:23:34;96672.97;;;14.88;100.00
70954;BME280;58618;47.490;8.736;2022-10-31T14:26:33;96663.53;;;14.92;100.00
70954;BME280;58618;47.490;8.736;2022-10-31T14:29:26;96662.19;;;14.94;100.00
70954;BME280;58618;47.490;8.736;2022-10-31T14:32:21;96654.97;;;14.69;100.00
70954;BME280;58618;47.490;8.736;2022-10-31T14:35:15;96653.84;;;14.61;100.00
70954;BME280;58618;47.490;8.736;2022-10-31T14:38:26;96646.78;;;14.53;100.00
70954;BME280;58618;47.490;8.736;2022-10-31T14:41:39;96643.91;;;14.41;100.00
70954;BME280;58618;47.490;8.736;2022-10-31T14:44:57;96635.47;;;14.22;100.00
70954;BME280;58618;47.490;8.736;2022-10-31T14:47:57;96618.38;;;14.07;100.00
70954;BME280;58618;47.490;8.736;2022-10-31T14:50:49;96630.09;;;14.18;100.00
70954;BME280;58618;47.490;8.736;2022-10-31T14:53:43;96628.97;;;14.11;100.00
70954;BME280;58618;47.490;8.736;2022-10-31T14:56:34;96627.03;;;14.03;100.00
70954;BME280;58618;47.490;8.736;2022-10-31T14:59:26;96636.25;;;14.09;100.00
70954;BME280;58618;47.490;8.736;2022-10-31T15:02:20;96631.66;;;13.92;100.00
70954;BME280;58618;47.490;8.736;2022-10-31T15:05:11;96630.25;;;13.72;100.00
70954;BME280;58618;47.490;8.736;2022-10-31T15:07:59;96626.69;;;13.54;100.00
70954;BME280;58618;47.490;8.736;2022-10-31T15:10:48;96633.41;;;13.42;100.00
70954;BME280;58618;47.490;8.736;2022-10-31T15:13:41;96628.41;;;13.32;100.00
70954;BME280;58618;47.490;8.736;2022-10-31T15:16:32;96632.03;;;13.31;100.00